sensor_id;sensor_type;location;lat;lon;timestamp;P1;durP1;ratioP1;P2;durP2;ratioP2
9392;SDS011;4736;52.508;13.422;2023-10-31T00:01:58;6.20;;;5.80;;
9392;SDS011;4736;52.508;13.422;2023-10-31T00:05:01;7.10;;;6.43;;
9392;SDS011;4736;52.508;13.422;2023-10-31T00:08:05;7.33;;;6.73;;
9392;SDS011;4736;52.508;13.422;2023-10-31T00:11:08;6.37;;;5.97;;
9392;SDS011;4736;52.508;13.422;2023-10-31T00:14:13;8.50;;;6.43;;
9392;SDS011;4736;52.508;13.422;2023-10-31T00:17:31;5.83;;;5.53;;
9392;SDS011;4736;52.508;13.422;2023-10-31T00:20:34;7.10;;;6.60;;
9392;SDS011;4736;52.508;13.422;2023-10-31T00:23:42;7.23;;;6.73;;
9392;SDS011;4736;52.508;13.422;2023-10-31T00:26:46;6.47;;;5.87;;
9392;SDS011;4736;52.508;13.422;2023-10-31T00:29:52;6.00;;;5.60;;
9392;SDS011;4736;52.508;13.422;2023-10-31T00:32:55;7.10;;;6.40;;
9392;SDS011;4736;52.508;13.422;2023-10-31T00:35:59;6.50;;;6.00;;
9392;SDS011;4736;52.508;13.422;2023-10-31T00:39:02;7.07;;;6.60;;
9392;SDS011;4736;52.508;13.422;2023-10-31T00:42:09;6.50;;;6.17;;
9392;SDS011;4736;52.508;13.422;2023-10-31T00:45:14;5.87;;;5.67;;
9392;SDS011;4736;52.508;13.422;2023-10-31T00:48:17;6.93;;;6.50;;
9392;SDS011;4736;52.508;13.422;2023-10-31T00:51:21;6.27;;;5.97;;
9392;SDS011;4736;52.508;13.422;2023-10-31T00:54:25;7.47;;;6.87;;
9392;SDS011;4736;52.508;13.422;2023-10-31T00:57:28;7.77;;;7.07;;
9392;SDS011;4736;52.508;13.422;2023-10-31T01:00:32;7.33;;;6.70;;
9392;SDS011;4736;52.508;13.422;2023-10-31T01:03:38;7.80;;;7.07;;
9392;SDS011;4736;52.508;13.422;2023-10-31T01:06:42;7.97;;;7.37;;
9392;SDS011;4736;52.508;13.422;2023-10-31T01:09:46;7.50;;;7.00;;
9392;SDS011;4736;52.508;13.422;2023-10-31T01:12:49;7.57;;;6.87;;
9392;SDS011;4736;52.508;13.422;2023-10-31T01:15:53;7.40;;;6.87;;
9392;SDS011;4736;52.508;13.422;2023-10-31T01:18:57;7.10;;;6.50;;
9392;SDS011;4736;52.508;13.422;2023-10-31T01:22:00;7.50;;;6.93;;
9392;SDS011;4736;52.508;13.422;2023-10-31T01:25:04;7.13;;;6.53;;
9392;SDS011;4736;52.508;13.422;2023-10-31T01:28:08;7.73;;;7.03;;
9392;SDS011;4736;52.508;13.422;2023-10-31T01:31:13;6.23;;;5.87;;
9392;SDS011;4736;52.508;13.422;2023-10-31T01:34:16;7.43;;;6.93;;
9392;SDS011;4736;52.508;13.422;2023-10-31T01:37:19;6.07;;;5.77;;
9392;SDS011;4736;52.508;13.422;2023-10-31T01:40:22;7.33;;;6.80;;
9392;SDS011;4736;52.508;13.422;2023-10-31T01:43:29;6.27;;;5.87;;
9392;SDS011;4736;52.508;13.422;2023-10-31T01:46:34;7.13;;;6.67;;
9392;SDS011;4736;52.508;13.422;2023-10-31T01:49:38;8.43;;;7.67;;
9392;SDS011;4736;52.508;13.422;2023-10-31T01:52:42;6.60;;;6.13;;
9392;SDS011;4736;52.508;13.422;2023-10-31T01:55:45;8.00;;;7.50;;
9392;SDS011;4736;52.508;13.422;2023-10-31T01:58:49;7.40;;;6.87;;
9392;SDS011;4736;52.508;13.422;2023-10-31T02:01:54;8.83;;;8.10;;
9392;SDS011;4736;52.508;13.422;2023-10-31T02:04:59;8.37;;;7.57;;
9392;SDS011;4736;52.508;13.422;2023-10-31T02:08:03;8.80;;;8.03;;
9392;SDS011;4736;52.508;13.422;2023-10-31T02:11:09;10.00;;;9.13;;
9392;SDS011;4736;52.508;13.422;2023-10-31T02:14:12;8.60;;;7.90;;
9392;SDS011;4736;52.508;13.422;2023-10-31T02:17:17;8.87;;;8.17;;
9392;SDS011;4736;52.508;13.422;2023-10-31T02:20:20;8.60;;;7.90;;
9392;SDS011;4736;52.508;13.422;2023-10-31T02:23:25;10.37;;;7.87;;
9392;SDS011;4736;52.508;13.422;2023-10-31T02:26:52;7.80;;;7.17;;
9392;SDS011;4736;52.508;13.422;2023-10-31T02:29:56;8.77;;;7.63;;
9392;SDS011;4736;52.508;13.422;2023-10-31T02:33:00;8.60;;;7.97;;
9392;SDS011;4736;52.508;13.422;2023-10-31T02:36:04;10.30;;;9.40;;
9392;SDS011;4736;52.508;13.422;2023-10-31T02:39:09;8.20;;;7.50;;
9392;SDS011;4736;52.508;13.422;2023-10-31T02:42:12;9.23;;;8.43;;
9392;SDS011;4736;52.508;13.422;2023-10-31T02:45:15;8.13;;;7.53;;
9392;SDS011;4736;52.508;13.422;2023-10-31T02:48:18;9.57;;;8.47;;
9392;SDS011;4736;52.508;13.422;2023-10-31T02:51:22;8.47;;;7.67;;
9392;SDS011;4736;52.508;13.422;2023-10-31T02:54:27;10.97;;;9.00;;
9392;SDS011;4736;52.508;13.422;2023-10-31T02:57:30;11.40;;;9.53;;
9392;SDS011;4736;52.508;13.422;2023-10-31T03:00:33;9.00;;;8.30;;
9392;SDS011;4736;52.508;13.422;2023-10-31T03:03:40;9.70;;;8.90;;
9392;SDS011;4736;52.508;13.422;2023-10-31T03:06:45;8.63;;;7.90;;
9392;SDS011;4736;52.508;13.422;2023-10-31T03:09:50;10.63;;;9.83;;
9392;SDS011;4736;52.508;13.422;2023-10-31T03:12:53;9.60;;;8.90;;
9392;SDS011;4736;52.508;13.422;2023-10-31T03:15:57;8.47;;;7.83;;
9392;SDS011;4736;52.508;13.422;2023-10-31T03:19:00;8.43;;;7.63;;
9392;SDS011;4736;52.508;13.422;2023-10-31T03:22:03;9.00;;;8.30;;
9392;SDS011;4736;52.508;13.422;2023-10-31T03:25:08;10.67;;;9.40;;
9392;SDS011;4736;52.508;13.422;2023-10-31T03:28:18;9.87;;;8.87;;
9392;SDS011;4736;52.508;13.422;2023-10-31T03:31:24;11.57;;;10.47;;
9392;SDS011;4736;52.508;13.422;2023-10-31T03:34:28;10.43;;;9.57;;
9392;SDS011;4736;52.508;13.422;2023-10-31T03:37:31;10.00;;;9.10;;
9392;SDS011;4736;52.508;13.422;2023-10-31T03:40:36;10.47;;;9.60;;
9392;SDS011;4736;52.508;13.422;2023-10-31T03:43:40;10.77;;;9.67;;
9392;SDS011;4736;52.508;13.422;2023-10-31T03:46:43;10.30;;;9.40;;
9392;SDS011;4736;52.508;13.422;2023-10-31T03:49:46;11.30;;;9.47;;
9392;SDS011;4736;52.508;13.422;2023-10-31T03:52:50;9.87;;;8.73;;
9392;SDS011;4736;52.508;13.422;2023-10-31T03:55:55;11.10;;;9.83;;
9392;SDS011;4736;52.508;13.422;2023-10-31T03:58:58;9.80;;;8.97;;
9392;SDS011;4736;52.508;13.422;2023-10-31T04:02:01;11.87;;;9.93;;
9392;SDS011;4736;52.508;13.422;2023-10-31T04:05:05;10.30;;;9.33;;
9392;SDS011;4736;52.508;13.422;2023-10-31T04:08:09;11.43;;;10.40;;
9392;SDS011;4736;52.508;13.422;2023-10-31T04:11:15;10.53;;;9.63;;
9392;SDS011;4736;52.508;13.422;2023-10-31T04:14:18;11.63;;;10.43;;
9392;SDS011;4736;52.508;13.422;2023-10-31T04:17:21;12.23;;;10.80;;
9392;SDS011;4736;52.508;13.422;2023-10-31T04:20:25;10.70;;;9.80;;
9392;SDS011;4736;52.508;13.422;2023-10-31T04:23:28;9.53;;;8.83;;
9392;SDS011;4736;52.508;13.422;2023-10-31T04:26:34;11.20;;;9.67;;
9392;SDS011;4736;52.508;13.422;2023-10-31T04:29:37;10.67;;;9.77;;
9392;SDS011;4736;52.508;13.422;2023-10-31T04:32:40;11.87;;;10.87;;
9392;SDS011;4736;52.508;13.422;2023-10-31T04:35:43;11.77;;;10.60;;
9392;SDS011;4736;52.508;13.422;2023-10-31T04:38:49;11.43;;;10.23;;
9392;SDS011;4736;52.508;13.422;2023-10-31T04:41:54;12.63;;;11.33;;
9392;SDS011;4736;52.508;13.422;2023-10-31T04:44:59;12.70;;;11.37;;
9392;SDS011;4736;52.508;13.422;2023-10-31T04:48:02;10.73;;;9.70;;
9392;SDS011;4736;52.508;13.422;2023-10-31T04:51:05;11.87;;;10.80;;
9392;SDS011;4736;52.508;13.422;2023-10-31T04:54:09;12.10;;;10.90;;
9392;SDS011;4736;52.508;13.422;2023-10-31T04:57:13;12.33;;;11.03;;
9392;SDS011;4736;52.508;13.422;2023-10-31T05:00:17;12.43;;;11.33;;
9392;SDS011;4736;52.508;13.422;2023-10-31T05:03:20;15.20;;;11.03;;
9392;SDS011;4736;52.508;13.422;2023-10-31T05:06:23;12.20;;;10.97;;
9392;SDS011;4736;52.508;13.422;2023-10-31T05:09:26;12.60;;;11.40;;
9392;SDS011;4736;52.508;13.422;2023-10-31T05:12:31;13.50;;;12.20;;
9392;SDS011;4736;52.508;13.422;2023-10-31T05:15:35;12.93;;;11.77;;
9392;SDS011;4736;52.508;13.422;2023-10-31T05:18:38;14.13;;;12.90;;
9392;SDS011;4736;52.508;13.422;2023-10-31T05:21:41;14.43;;;12.93;;
9392;SDS011;4736;52.508;13.422;2023-10-31T05:24:58;13.30;;;12.00;;
9392;SDS011;4736;52.508;13.422;2023-10-31T05:28:03;13.57;;;12.27;;
9392;SDS011;4736;52.508;13.422;2023-10-31T05:31:06;14.33;;;12.93;;
9392;SDS011;4736;52.508;13.422;2023-10-31T05:34:09;12.77;;;11.77;;
9392;SDS011;4736;52.508;13.422;2023-10-31T05:37:12;14.67;;;13.10;;
9392;SDS011;4736;52.508;13.422;2023-10-31T05:40:15;13.30;;;12.00;;
9392;SDS011;4736;52.508;13.422;2023-10-31T05:43:20;14.20;;;12.73;;
9392;SDS011;4736;52.508;13.422;2023-10-31T05:46:23;12.80;;;11.70;;
9392;SDS011;4736;52.508;13.422;2023-10-31T05:49:52;12.87;;;11.77;;
9392;SDS011;4736;52.508;13.422;2023-10-31T05:52:55;12.37;;;11.23;;
9392;SDS011;4736;52.508;13.422;2023-10-31T05:55:59;10.93;;;10.03;;
9392;SDS011;4736;52.508;13.422;2023-10-31T05:59:04;11.40;;;10.43;;
9392;SDS011;4736;52.508;13.422;2023-10-31T06:02:07;10.53;;;9.80;;
9392;SDS011;4736;52.508;13.422;2023-10-31T06:05:11;9.80;;;9.10;;
9392;SDS011;4736;52.508;13.422;2023-10-31T06:08:14;10.30;;;9.53;;
9392;SDS011;4736;52.508;13.422;2023-10-31T06:11:18;10.67;;;9.80;;
9392;SDS011;4736;52.508;13.422;2023-10-31T06:14:23;10.50;;;9.67;;
9392;SDS011;4736;52.508;13.422;2023-10-31T06:17:27;11.37;;;10.33;;
9392;SDS011;4736;52.508;13.422;2023-10-31T06:20:32;11.63;;;10.63;;
9392;SDS011;4736;52.508;13.422;2023-10-31T06:23:36;11.77;;;10.87;;
9392;SDS011;4736;52.508;13.422;2023-10-31T06:26:39;12.00;;;11.00;;
9392;SDS011;4736;52.508;13.422;2023-10-31T06:29:44;10.90;;;10.10;;
9392;SDS011;4736;52.508;13.422;2023-10-31T06:33:06;11.60;;;10.70;;
9392;SDS011;4736;52.508;13.422;2023-10-31T06:36:10;10.27;;;9.67;;
9392;SDS011;4736;52.508;13.422;2023-10-31T06:39:13;12.10;;;10.97;;
9392;SDS011;4736;52.508;13.422;2023-10-31T06:42:17;10.90;;;10.20;;
9392;SDS011;4736;52.508;13.422;2023-10-31T06:45:21;10.83;;;10.13;;
9392;SDS011;4736;52.508;13.422;2023-10-31T06:48:24;10.67;;;9.77;;
9392;SDS011;4736;52.508;13.422;2023-10-31T06:51:28;9.90;;;9.13;;
9392;SDS011;4736;52.508;13.422;2023-10-31T06:54:31;9.63;;;9.03;;
9392;SDS011;4736;52.508;13.422;2023-10-31T06:57:35;8.90;;;8.20;;
9392;SDS011;4736;52.508;13.422;2023-10-31T07:00:40;8.60;;;8.00;;
9392;SDS011;4736;52.508;13.422;2023-10-31T07:03:44;8.57;;;8.00;;
9392;SDS011;4736;52.508;13.422;2023-10-31T07:06:47;8.57;;;7.63;;
9392;SDS011;4736;52.508;13.422;2023-10-31T07:09:55;8.60;;;7.70;;
9392;SDS011;4736;52.508;13.422;2023-10-31T07:12:58;8.43;;;7.83;;
9392;SDS011;4736;52.508;13.422;2023-10-31T07:16:04;7.00;;;6.50;;
9392;SDS011;4736;52.508;13.422;2023-10-31T07:19:08;7.20;;;6.80;;
9392;SDS011;4736;52.508;13.422;2023-10-31T07:22:11;7.13;;;6.63;;
9392;SDS011;4736;52.508;13.422;2023-10-31T07:25:15;5.80;;;5.50;;
9392;SDS011;4736;52.508;13.422;2023-10-31T07:28:20;4.13;;;3.93;;
9392;SDS011;4736;52.508;13.422;2023-10-31T07:31:27;3.87;;;3.57;;
9392;SDS011;4736;52.508;13.422;2023-10-31T07:34:30;2.97;;;2.97;;
9392;SDS011;4736;52.508;13.422;2023-10-31T07:37:33;3.37;;;3.27;;
9392;SDS011;4736;52.508;13.422;2023-10-31T07:40:37;3.33;;;3.23;;
9392;SDS011;4736;52.508;13.422;2023-10-31T07:43:40;3.40;;;3.20;;
9392;SDS011;4736;52.508;13.422;2023-10-31T07:46:46;3.50;;;3.40;;
9392;SDS011;4736;52.508;13.422;2023-10-31T07:49:49;3.53;;;3.43;;
9392;SDS011;4736;52.508;13.422;2023-10-31T07:52:54;3.40;;;3.30;;
9392;SDS011;4736;52.508;13.422;2023-10-31T07:55:58;3.27;;;3.23;;
9392;SDS011;4736;52.508;13.422;2023-10-31T07:59:01;3.40;;;3.20;;
9392;SDS011;4736;52.508;13.422;2023-10-31T08:02:06;3.27;;;3.20;;
9392;SDS011;4736;52.508;13.422;2023-10-31T08:05:10;3.70;;;3.53;;
9392;SDS011;4736;52.508;13.422;2023-10-31T08:08:13;2.80;;;2.80;;
9392;SDS011;4736;52.508;13.422;2023-10-31T08:11:16;2.73;;;2.63;;
9392;SDS011;4736;52.508;13.422;2023-10-31T08:14:20;2.60;;;2.60;;
9392;SDS011;4736;52.508;13.422;2023-10-31T08:17:28;2.50;;;2.50;;
9392;SDS011;4736;52.508;13.422;2023-10-31T08:20:31;2.60;;;2.60;;
9392;SDS011;4736;52.508;13.422;2023-10-31T08:23:35;2.60;;;2.50;;
9392;SDS011;4736;52.508;13.422;2023-10-31T08:26:39;2.63;;;2.53;;
9392;SDS011;4736;52.508;13.422;2023-10-31T08:29:42;2.37;;;2.37;;
9392;SDS011;4736;52.508;13.422;2023-10-31T08:32:46;3.07;;;2.67;;
9392;SDS011;4736;52.508;13.422;2023-10-31T08:35:53;2.73;;;2.73;;
9392;SDS011;4736;52.508;13.422;2023-10-31T08:38:56;2.17;;;2.10;;
9392;SDS011;4736;52.508;13.422;2023-10-31T08:42:00;2.53;;;2.43;;
9392;SDS011;4736;52.508;13.422;2023-10-31T08:45:03;2.20;;;2.20;;
9392;SDS011;4736;52.508;13.422;2023-10-31T08:48:08;2.10;;;2.10;;
9392;SDS011;4736;52.508;13.422;2023-10-31T08:51:26;2.40;;;2.30;;
9392;SDS011;4736;52.508;13.422;2023-10-31T08:54:29;2.53;;;2.43;;
9392;SDS011;4736;52.508;13.422;2023-10-31T08:57:32;2.30;;;2.20;;
9392;SDS011;4736;52.508;13.422;2023-10-31T09:00:36;1.80;;;1.80;;
9392;SDS011;4736;52.508;13.422;2023-10-31T09:03:40;2.20;;;2.20;;
9392;SDS011;4736;52.508;13.422;2023-10-31T09:06:44;2.40;;;2.40;;
9392;SDS011;4736;52.508;13.422;2023-10-31T09:09:47;2.17;;;2.13;;
9392;SDS011;4736;52.508;13.422;2023-10-31T09:12:50;2.17;;;2.03;;
9392;SDS011;4736;52.508;13.422;2023-10-31T09:15:53;1.90;;;1.90;;
9392;SDS011;4736;52.508;13.422;2023-10-31T09:18:58;2.00;;;2.00;;
9392;SDS011;4736;52.508;13.422;2023-10-31T09:22:01;1.90;;;1.90;;
9392;SDS011;4736;52.508;13.422;2023-10-31T09:25:05;2.57;;;2.37;;
9392;SDS011;4736;52.508;13.422;2023-10-31T09:28:09;2.10;;;2.00;;
9392;SDS011;4736;52.508;13.422;2023-10-31T09:31:12;2.30;;;2.20;;
9392;SDS011;4736;52.508;13.422;2023-10-31T09:34:16;1.87;;;1.87;;
9392;SDS011;4736;52.508;13.422;2023-10-31T09:37:20;2.40;;;2.20;;
9392;SDS011;4736;52.508;13.422;2023-10-31T09:40:23;2.00;;;2.00;;
9392;SDS011;4736;52.508;13.422;2023-10-31T09:43:26;2.33;;;2.23;;
9392;SDS011;4736;52.508;13.422;2023-10-31T09:46:29;1.93;;;1.93;;
9392;SDS011;4736;52.508;13.422;2023-10-31T09:49:34;2.40;;;2.20;;
9392;SDS011;4736;52.508;13.422;2023-10-31T09:52:38;2.60;;;2.60;;
9392;SDS011;4736;52.508;13.422;2023-10-31T09:55:41;2.60;;;2.60;;
9392;SDS011;4736;52.508;13.422;2023-10-31T09:58:45;2.30;;;2.30;;
9392;SDS011;4736;52.508;13.422;2023-10-31T10:01:50;2.60;;;2.50;;
9392;SDS011;4736;52.508;13.422;2023-10-31T10:04:55;2.30;;;2.20;;
9392;SDS011;4736;52.508;13.422;2023-10-31T10:07:58;2.47;;;2.33;;
9392;SDS011;4736;52.508;13.422;2023-10-31T10:11:01;2.93;;;2.50;;
9392;SDS011;4736;52.508;13.422;2023-10-31T10:14:05;2.40;;;2.30;;
9392;SDS011;4736;52.508;13.422;2023-10-31T10:17:14;2.70;;;2.50;;
9392;SDS011;4736;52.508;13.422;2023-10-31T10:20:20;3.10;;;3.10;;
9392;SDS011;4736;52.508;13.422;2023-10-31T10:23:24;3.13;;;2.80;;
9392;SDS011;4736;52.508;13.422;2023-10-31T10:26:28;2.50;;;2.40;;
9392;SDS011;4736;52.508;13.422;2023-10-31T10:29:31;2.57;;;2.43;;
9392;SDS011;4736;52.508;13.422;2023-10-31T10:32:34;2.50;;;2.50;;
9392;SDS011;4736;52.508;13.422;2023-10-31T10:35:39;2.63;;;2.63;;
9392;SDS011;4736;52.508;13.422;2023-10-31T10:38:42;2.40;;;2.40;;
9392;SDS011;4736;52.508;13.422;2023-10-31T10:41:51;2.73;;;2.63;;
9392;SDS011;4736;52.508;13.422;2023-10-31T10:44:57;4.13;;;3.03;;
9392;SDS011;4736;52.508;13.422;2023-10-31T10:48:05;4.47;;;2.80;;
9392;SDS011;4736;52.508;13.422;2023-10-31T10:51:17;2.60;;;2.60;;
9392;SDS011;4736;52.508;13.422;2023-10-31T10:54:31;2.90;;;2.70;;
9392;SDS011;4736;52.508;13.422;2023-10-31T10:57:37;2.60;;;2.60;;
9392;SDS011;4736;52.508;13.422;2023-10-31T11:00:43;2.77;;;2.77;;
9392;SDS011;4736;52.508;13.422;2023-10-31T11:03:50;2.90;;;2.80;;
9392;SDS011;4736;52.508;13.422;2023-10-31T11:06:57;3.20;;;3.10;;
9392;SDS011;4736;52.508;13.422;2023-10-31T11:10:01;2.73;;;2.73;;
9392;SDS011;4736;52.508;13.422;2023-10-31T11:13:06;3.23;;;3.13;;
9392;SDS011;4736;52.508;13.422;2023-10-31T11:16:11;3.30;;;3.10;;
9392;SDS011;4736;52.508;13.422;2023-10-31T11:19:20;3.30;;;3.20;;
9392;SDS011;4736;52.508;13.422;2023-10-31T11:22:37;3.60;;;3.50;;
9392;SDS011;4736;52.508;13.422;2023-10-31T11:25:42;3.20;;;3.10;;
9392;SDS011;4736;52.508;13.422;2023-10-31T11:28:46;3.47;;;3.17;;
9392;SDS011;4736;52.508;13.422;2023-10-31T11:31:49;3.30;;;3.10;;
9392;SDS011;4736;52.508;13.422;2023-10-31T11:34:53;3.17;;;3.03;;
9392;SDS011;4736;52.508;13.422;2023-10-31T11:38:13;3.00;;;3.00;;
9392;SDS011;4736;52.508;13.422;2023-10-31T11:41:16;3.13;;;3.07;;
9392;SDS011;4736;52.508;13.422;2023-10-31T11:44:21;3.50;;;3.50;;
9392;SDS011;4736;52.508;13.422;2023-10-31T11:47:25;3.33;;;3.23;;
9392;SDS011;4736;52.508;13.422;2023-10-31T11:50:29;3.07;;;3.00;;
9392;SDS011;4736;52.508;13.422;2023-10-31T11:53:33;4.37;;;2.87;;
9392;SDS011;4736;52.508;13.422;2023-10-31T11:56:41;2.77;;;2.67;;
9392;SDS011;4736;52.508;13.422;2023-10-31T11:59:52;4.50;;;4.20;;
9392;SDS011;4736;52.508;13.422;2023-10-31T12:02:57;2.87;;;2.77;;
9392;SDS011;4736;52.508;13.422;2023-10-31T12:06:02;2.67;;;2.67;;
9392;SDS011;4736;52.508;13.422;2023-10-31T12:09:07;2.63;;;2.60;;
9392;SDS011;4736;52.508;13.422;2023-10-31T12:12:10;2.87;;;2.40;;
9392;SDS011;4736;52.508;13.422;2023-10-31T12:15:14;2.13;;;2.13;;
9392;SDS011;4736;52.508;13.422;2023-10-31T12:18:17;2.20;;;2.20;;
9392;SDS011;4736;52.508;13.422;2023-10-31T12:21:33;2.67;;;2.50;;
9392;SDS011;4736;52.508;13.422;2023-10-31T12:24:39;2.23;;;2.23;;
9392;SDS011;4736;52.508;13.422;2023-10-31T12:27:42;2.40;;;2.20;;
9392;SDS011;4736;52.508;13.422;2023-10-31T12:30:47;2.37;;;2.37;;
9392;SDS011;4736;52.508;13.422;2023-10-31T12:33:52;2.20;;;2.20;;
9392;SDS011;4736;52.508;13.422;2023-10-31T12:36:55;2.40;;;2.30;;
9392;SDS011;4736;52.508;13.422;2023-10-31T12:40:05;2.63;;;2.43;;
9392;SDS011;4736;52.508;13.422;2023-10-31T12:43:10;1.90;;;1.90;;
9392;SDS011;4736;52.508;13.422;2023-10-31T12:49:36;2.00;;;2.00;;
9392;SDS011;4736;52.508;13.422;2023-10-31T12:52:46;2.00;;;1.90;;
9392;SDS011;4736;52.508;13.422;2023-10-31T12:55:52;1.90;;;1.90;;
9392;SDS011;4736;52.508;13.422;2023-10-31T12:58:58;2.03;;;1.97;;
9392;SDS011;4736;52.508;13.422;2023-10-31T13:02:01;1.90;;;1.90;;
9392;SDS011;4736;52.508;13.422;2023-10-31T13:05:09;1.90;;;1.90;;
9392;SDS011;4736;52.508;13.422;2023-10-31T13:08:14;2.03;;;1.80;;
9392;SDS011;4736;52.508;13.422;2023-10-31T13:11:19;1.80;;;1.80;;
9392;SDS011;4736;52.508;13.422;2023-10-31T13:14:27;2.07;;;2.07;;
9392;SDS011;4736;52.508;13.422;2023-10-31T13:17:30;2.00;;;2.00;;
9392;SDS011;4736;52.508;13.422;2023-10-31T13:20:34;2.10;;;2.10;;
9392;SDS011;4736;52.508;13.422;2023-10-31T13:23:37;2.07;;;1.97;;
9392;SDS011;4736;52.508;13.422;2023-10-31T13:26:42;1.90;;;1.90;;
9392;SDS011;4736;52.508;13.422;2023-10-31T13:29:46;2.37;;;2.30;;
9392;SDS011;4736;52.508;13.422;2023-10-31T13:32:51;2.07;;;2.07;;
9392;SDS011;4736;52.508;13.422;2023-10-31T13:35:54;1.70;;;1.70;;
9392;SDS011;4736;52.508;13.422;2023-10-31T13:38:57;1.93;;;1.90;;
9392;SDS011;4736;52.508;13.422;2023-10-31T13:42:03;2.00;;;2.00;;
9392;SDS011;4736;52.508;13.422;2023-10-31T13:45:06;1.87;;;1.87;;
9392;SDS011;4736;52.508;13.422;2023-10-31T13:48:10;1.90;;;1.90;;
9392;SDS011;4736;52.508;13.422;2023-10-31T13:51:15;1.93;;;1.77;;
9392;SDS011;4736;52.508;13.422;2023-10-31T13:54:22;1.80;;;1.80;;
9392;SDS011;4736;52.508;13.422;2023-10-31T13:57:27;2.43;;;1.77;;
9392;SDS011;4736;52.508;13.422;2023-10-31T14:00:30;1.80;;;1.80;;
9392;SDS011;4736;52.508;13.422;2023-10-31T14:03:34;2.07;;;1.97;;
9392;SDS011;4736;52.508;13.422;2023-10-31T14:06:37;1.93;;;1.93;;
9392;SDS011;4736;52.508;13.422;2023-10-31T14:09:41;1.80;;;1.80;;
9392;SDS011;4736;52.508;13.422;2023-10-31T14:12:46;1.77;;;1.77;;
9392;SDS011;4736;52.508;13.422;2023-10-31T14:15:50;2.00;;;2.00;;
9392;SDS011;4736;52.508;13.422;2023-10-31T14:18:53;1.80;;;1.80;;
9392;SDS011;4736;52.508;13.422;2023-10-31T14:21:56;2.17;;;2.07;;
9392;SDS011;4736;52.508;13.422;2023-10-31T14:25:00;1.80;;;1.80;;
9392;SDS011;4736;52.508;13.422;2023-10-31T14:28:07;4.60;;;4.30;;
9392;SDS011;4736;52.508;13.422;2023-10-31T14:31:10;1.93;;;1.93;;
9392;SDS011;4736;52.508;13.422;2023-10-31T14:34:13;3.10;;;2.93;;
9392;SDS011;4736;52.508;13.422;2023-10-31T14:37:16;2.30;;;2.17;;
9392;SDS011;4736;52.508;13.422;2023-10-31T14:40:19;2.10;;;2.10;;
9392;SDS011;4736;52.508;13.422;2023-10-31T14:43:24;2.13;;;2.13;;
9392;SDS011;4736;52.508;13.422;2023-10-31T14:46:27;2.27;;;2.27;;
9392;SDS011;4736;52.508;13.422;2023-10-31T14:49:31;2.53;;;2.27;;
9392;SDS011;4736;52.508;13.422;2023-10-31T14:52:34;2.10;;;2.10;;
9392;SDS011;4736;52.508;13.422;2023-10-31T14:55:38;2.73;;;2.53;;
9392;SDS011;4736;52.508;13.422;2023-10-31T14:58:43;2.37;;;2.30;;
9392;SDS011;4736;52.508;13.422;2023-10-31T15:01:49;2.40;;;2.30;;
9392;SDS011;4736;52.508;13.422;2023-10-31T15:04:53;2.23;;;2.23;;
9392;SDS011;4736;52.508;13.422;2023-10-31T15:08:07;2.47;;;2.47;;
9392;SDS011;4736;52.508;13.422;2023-10-31T15:11:10;2.67;;;2.60;;
9392;SDS011;4736;52.508;13.422;2023-10-31T15:14:15;2.30;;;2.30;;
9392;SDS011;4736;52.508;13.422;2023-10-31T15:17:18;2.30;;;2.30;;
9392;SDS011;4736;52.508;13.422;2023-10-31T15:20:22;2.23;;;2.13;;
9392;SDS011;4736;52.508;13.422;2023-10-31T15:23:25;2.30;;;2.30;;
9392;SDS011;4736;52.508;13.422;2023-10-31T15:26:28;2.20;;;2.20;;
9392;SDS011;4736;52.508;13.422;2023-10-31T15:29:33;2.37;;;2.37;;
9392;SDS011;4736;52.508;13.422;2023-10-31T15:32:39;2.57;;;2.53;;
9392;SDS011;4736;52.508;13.422;2023-10-31T15:35:42;2.37;;;2.33;;
9392;SDS011;4736;52.508;13.422;2023-10-31T15:38:46;2.37;;;2.37;;
9392;SDS011;4736;52.508;13.422;2023-10-31T15:41:49;2.40;;;2.40;;
9392;SDS011;4736;52.508;13.422;2023-10-31T15:44:56;2.70;;;2.60;;
9392;SDS011;4736;52.508;13.422;2023-10-31T15:47:59;2.60;;;2.50;;
9392;SDS011;4736;52.508;13.422;2023-10-31T15:51:03;2.60;;;2.60;;
9392;SDS011;4736;52.508;13.422;2023-10-31T15:54:06;3.07;;;2.90;;
9392;SDS011;4736;52.508;13.422;2023-10-31T15:57:09;2.60;;;2.60;;
9392;SDS011;4736;52.508;13.422;2023-10-31T16:00:14;2.53;;;2.43;;
9392;SDS011;4736;52.508;13.422;2023-10-31T16:03:18;2.73;;;2.63;;
9392;SDS011;4736;52.508;13.422;2023-10-31T16:06:21;3.27;;;3.17;;
9392;SDS011;4736;52.508;13.422;2023-10-31T16:09:25;3.17;;;3.03;;
9392;SDS011;4736;52.508;13.422;2023-10-31T16:12:28;2.87;;;2.87;;
9392;SDS011;4736;52.508;13.422;2023-10-31T16:15:33;2.63;;;2.63;;
9392;SDS011;4736;52.508;13.422;2023-10-31T16:18:36;2.63;;;2.53;;
9392;SDS011;4736;52.508;13.422;2023-10-31T16:21:39;2.47;;;2.47;;
9392;SDS011;4736;52.508;13.422;2023-10-31T16:24:42;2.90;;;2.90;;
9392;SDS011;4736;52.508;13.422;2023-10-31T16:27:46;3.00;;;2.90;;
9392;SDS011;4736;52.508;13.422;2023-10-31T16:30:50;3.07;;;2.90;;
9392;SDS011;4736;52.508;13.422;2023-10-31T16:33:54;2.60;;;2.60;;
9392;SDS011;4736;52.508;13.422;2023-10-31T16:36:57;2.70;;;2.70;;
9392;SDS011;4736;52.508;13.422;2023-10-31T16:40:01;2.60;;;2.50;;
9392;SDS011;4736;52.508;13.422;2023-10-31T16:43:04;2.83;;;2.83;;
9392;SDS011;4736;52.508;13.422;2023-10-31T16:46:09;2.60;;;2.60;;
9392;SDS011;4736;52.508;13.422;2023-10-31T16:49:12;2.50;;;2.50;;
9392;SDS011;4736;52.508;13.422;2023-10-31T16:52:17;2.90;;;2.90;;
9392;SDS011;4736;52.508;13.422;2023-10-31T16:55:20;2.70;;;2.70;;
9392;SDS011;4736;52.508;13.422;2023-10-31T16:58:24;3.27;;;3.10;;
9392;SDS011;4736;52.508;13.422;2023-10-31T17:01:28;2.90;;;2.90;;
9392;SDS011;4736;52.508;13.422;2023-10-31T17:04:32;3.47;;;3.37;;
9392;SDS011;4736;52.508;13.422;2023-10-31T17:07:37;3.13;;;3.13;;
9392;SDS011;4736;52.508;13.422;2023-10-31T17:10:40;3.40;;;3.30;;
9392;SDS011;4736;52.508;13.422;2023-10-31T17:13:44;3.47;;;3.37;;
9392;SDS011;4736;52.508;13.422;2023-10-31T17:16:52;4.13;;;3.87;;
9392;SDS011;4736;52.508;13.422;2023-10-31T17:19:57;3.63;;;3.53;;
9392;SDS011;4736;52.508;13.422;2023-10-31T17:23:00;3.60;;;3.50;;
9392;SDS011;4736;52.508;13.422;2023-10-31T17:26:04;3.60;;;3.40;;
9392;SDS011;4736;52.508;13.422;2023-10-31T17:29:11;5.60;;;4.20;;
9392;SDS011;4736;52.508;13.422;2023-10-31T17:32:16;3.97;;;3.80;;
9392;SDS011;4736;52.508;13.422;2023-10-31T17:35:23;3.90;;;3.80;;
9392;SDS011;4736;52.508;13.422;2023-10-31T17:38:27;4.73;;;4.53;;
9392;SDS011;4736;52.508;13.422;2023-10-31T17:41:30;5.70;;;4.20;;
9392;SDS011;4736;52.508;13.422;2023-10-31T17:44:33;4.27;;;4.13;;
9392;SDS011;4736;52.508;13.422;2023-10-31T17:47:38;3.97;;;3.87;;
9392;SDS011;4736;52.508;13.422;2023-10-31T17:50:43;4.43;;;4.20;;
9392;SDS011;4736;52.508;13.422;2023-10-31T17:53:47;6.33;;;5.83;;
9392;SDS011;4736;52.508;13.422;2023-10-31T17:56:50;4.53;;;4.43;;
9392;SDS011;4736;52.508;13.422;2023-10-31T17:59:54;5.00;;;4.80;;
9392;SDS011;4736;52.508;13.422;2023-10-31T18:02:58;4.40;;;4.10;;
9392;SDS011;4736;52.508;13.422;2023-10-31T18:06:02;4.33;;;4.23;;
9392;SDS011;4736;52.508;13.422;2023-10-31T18:09:07;4.70;;;4.50;;
9392;SDS011;4736;52.508;13.422;2023-10-31T18:12:13;4.90;;;4.50;;
9392;SDS011;4736;52.508;13.422;2023-10-31T18:15:17;4.40;;;4.30;;
9392;SDS011;4736;52.508;13.422;2023-10-31T18:18:22;5.27;;;4.70;;
9392;SDS011;4736;52.508;13.422;2023-10-31T18:21:26;4.53;;;4.23;;
9392;SDS011;4736;52.508;13.422;2023-10-31T18:24:30;4.73;;;4.63;;
9392;SDS011;4736;52.508;13.422;2023-10-31T18:27:35;4.57;;;4.47;;
9392;SDS011;4736;52.508;13.422;2023-10-31T18:30:38;4.50;;;4.27;;
9392;SDS011;4736;52.508;13.422;2023-10-31T18:33:43;4.17;;;4.07;;
9392;SDS011;4736;52.508;13.422;2023-10-31T18:36:47;4.37;;;4.27;;
9392;SDS011;4736;52.508;13.422;2023-10-31T18:39:51;4.10;;;4.00;;
9392;SDS011;4736;52.508;13.422;2023-10-31T18:42:54;3.97;;;3.87;;
9392;SDS011;4736;52.508;13.422;2023-10-31T18:45:57;3.70;;;3.63;;
9392;SDS011;4736;52.508;13.422;2023-10-31T18:49:01;2.90;;;2.90;;